< Typhoon 200513 2005 Season Typhoon 200515 >
Typhoon 200514 (NABI)
General InformationTrack Information on Google MapsDetailed Wind InformationAccess Analytics MapList of All Images || NewsDisaster Info.WeblogTrackbackTyphoon FrontResourceGoogle EarthGE AnimationAtom FeedGeoJSON
Detalied Best Track (Time Zone = UTC)
Year Month Day Hour Lat. Long. Pressure (hPa) Wind (kt) Class Image Chart
2005 8 29 00 14.6 154.0 1004 0 2 Image Chart
2005 8 29 06 14.9 153.4 1000 0 2 Image Chart
2005 8 29 12 15.0 152.3 994 40 3 Image Chart
2005 8 29 18 15.1 151.2 990 45 3 Image Chart
2005 8 30 00 15.1 150.2 985 50 4 Image Chart
2005 8 30 06 15.1 149.2 980 55 4 Image Chart
2005 8 30 12 14.8 147.8 975 60 4 Image Chart
2005 8 30 18 15.2 147.1 965 70 5 Image Chart
2005 8 31 00 15.6 146.3 950 80 5 Image Chart
2005 8 31 06 16.4 144.9 945 85 5 Image Chart
2005 8 31 12 16.6 143.7 935 90 5 Image Chart
2005 8 31 18 16.7 142.6 935 90 5 Image Chart
2005 9 1 00 17.3 141.5 935 90 5 Image Chart
2005 9 1 06 17.7 140.7 935 90 5 Image Chart
2005 9 1 12 18.3 139.8 930 95 5 Image Chart
2005 9 1 18 18.8 138.5 930 95 5 Image Chart
2005 9 2 00 19.2 137.5 930 95 5 Image Chart
2005 9 2 06 19.6 136.8 925 95 5 Image Chart
2005 9 2 12 20.1 136.1 925 95 5 Image Chart
2005 9 2 18 20.8 135.3 930 95 5 Image Chart
2005 9 3 00 21.4 134.6 935 90 5 Image Chart
2005 9 3 06 22.3 134.0 935 90 5 Image Chart
2005 9 3 12 23.2 133.2 935 90 5 Image Chart
2005 9 3 15 23.5 132.9 935 90 5 Image Chart
2005 9 3 18 24.0 132.6 940 85 5 Image Chart
2005 9 3 21 24.4 132.5 940 85 5 Image Chart
2005 9 4 00 24.8 132.2 940 85 5 Image Chart
2005 9 4 03 25.5 132.0 940 85 5 Image Chart
2005 9 4 06 26.1 131.6 935 85 5 Image Chart
2005 9 4 09 26.3 131.3 935 85 5 Image Chart
2005 9 4 12 26.6 131.2 935 85 5 Image Chart
2005 9 4 15 26.8 131.0 935 85 5 Image Chart
2005 9 4 18 27.1 131.0 935 85 5 Image Chart
2005 9 4 21 27.6 130.9 935 85 5 Image Chart
2005 9 5 00 27.9 130.7 935 85 5 Image Chart
2005 9 5 03 28.4 130.5 935 85 5 Image Chart
2005 9 5 06 28.8 130.4 935 85 5 Image Chart
2005 9 5 09 29.1 130.2 935 85 5 Image Chart
2005 9 5 12 29.4 130.2 935 85 5 Image Chart
2005 9 5 15 29.7 130.1 940 85 5 Image Chart
2005 9 5 18 30.2 130.2 945 80 5 Image Chart
2005 9 5 21 30.8 130.2 945 80 5 Image Chart
2005 9 6 00 31.4 130.0 950 80 5 Image Chart
2005 9 6 03 32.1 130.1 955 75 5 Image Chart
2005 9 6 04 32.5 130.2 960 70 5 Image Chart
2005 9 6 05 32.7 130.1 960 65 5 Image Chart
2005 9 6 06 33.0 130.2 965 65 5 Image Chart
2005 9 6 09 33.5 130.3 970 65 5 Image Chart
2005 9 6 12 34.2 130.8 970 65 5 Image Chart
2005 9 6 15 34.9 131.1 970 65 5 Image Chart
2005 9 6 18 36.0 131.8 975 65 5 Image Chart
2005 9 6 21 36.9 132.2 975 60 4 Image Chart
2005 9 7 00 37.5 133.0 980 55 4 Image Chart
2005 9 7 03 38.2 134.0 985 55 4 Image Chart
2005 9 7 06 38.8 135.2 985 50 4 Image Chart
2005 9 7 09 40.0 137.0 985 50 4 Image Chart
2005 9 7 12 41.0 138.7 985 50 4 Image Chart
2005 9 7 15 42.6 139.7 985 50 4 Image Chart
2005 9 7 18 44.0 141.1 985 50 4 Image Chart
2005 9 7 19 44.5 141.5 985 50 4 Image Chart
2005 9 7 21 45.3 142.9 985 50 4 Image Chart
2005 9 8 00 46.0 145.0 985 50 4 Image Chart
2005 9 8 03 47.0 147.0 985 50 4 Image Chart
2005 9 8 06 47.4 147.9 986 0 6 Image Chart
2005 9 8 12 48.9 150.6 984 0 6 Image Chart
2005 9 8 18 49.8 154.2 976 0 6 Image Chart
2005 9 9 00 49.9 157.6 976 0 6 Image Chart
2005 9 9 06 49.8 162.2 976 0 6 Image Chart
2005 9 9 12 49.9 166.4 978 0 6 Image Chart
2005 9 9 18 49.6 170.5 978 0 6 Image Chart
Japan Meteorological Agency Best Track Data | Correction Date : 2005-12-19
< Typhoon 200513 2005 Season Typhoon 200515 >

Help